sensor_id;sensor_type;location;lat;lon;timestamp;P1;durP1;ratioP1;P2;durP2;ratioP2
36391;SDS011;22639;42.690;23.356;2023-08-17T00:00:13;11.80;;;10.52;;
36391;SDS011;22639;42.690;23.356;2023-08-17T00:02:39;9.27;;;8.35;;
36391;SDS011;22639;42.690;23.356;2023-08-17T00:05:05;10.32;;;7.78;;
36391;SDS011;22639;42.690;23.356;2023-08-17T00:07:33;10.30;;;8.85;;
36391;SDS011;22639;42.690;23.356;2023-08-17T00:10:00;11.68;;;8.57;;
36391;SDS011;22639;42.690;23.356;2023-08-17T00:12:25;8.98;;;8.07;;
36391;SDS011;22639;42.690;23.356;2023-08-17T00:14:51;9.63;;;8.25;;
36391;SDS011;22639;42.690;23.356;2023-08-17T00:17:17;12.43;;;8.82;;
36391;SDS011;22639;42.690;23.356;2023-08-17T00:19:43;9.73;;;8.75;;
36391;SDS011;22639;42.690;23.356;2023-08-17T00:22:09;13.23;;;8.82;;
36391;SDS011;22639;42.690;23.356;2023-08-17T00:24:34;9.82;;;8.20;;
36391;SDS011;22639;42.690;23.356;2023-08-17T00:27:00;8.63;;;7.82;;
36391;SDS011;22639;42.690;23.356;2023-08-17T00:29:25;9.07;;;8.23;;
36391;SDS011;22639;42.690;23.356;2023-08-17T00:31:50;14.88;;;9.13;;
36391;SDS011;22639;42.690;23.356;2023-08-17T00:34:16;10.07;;;8.45;;
36391;SDS011;22639;42.690;23.356;2023-08-17T00:36:41;11.95;;;8.73;;
36391;SDS011;22639;42.690;23.356;2023-08-17T00:39:08;11.60;;;9.07;;
36391;SDS011;22639;42.690;23.356;2023-08-17T00:41:33;9.23;;;8.15;;
36391;SDS011;22639;42.690;23.356;2023-08-17T00:44:00;10.48;;;8.00;;
36391;SDS011;22639;42.690;23.356;2023-08-17T00:46:25;10.57;;;7.75;;
36391;SDS011;22639;42.690;23.356;2023-08-17T00:48:51;10.63;;;8.07;;
36391;SDS011;22639;42.690;23.356;2023-08-17T00:51:17;10.43;;;7.72;;
36391;SDS011;22639;42.690;23.356;2023-08-17T00:53:45;11.07;;;7.88;;
36391;SDS011;22639;42.690;23.356;2023-08-17T00:56:12;7.50;;;6.80;;
36391;SDS011;22639;42.690;23.356;2023-08-17T00:58:38;8.98;;;7.30;;
36391;SDS011;22639;42.690;23.356;2023-08-17T01:01:03;8.07;;;6.90;;
36391;SDS011;22639;42.690;23.356;2023-08-17T01:03:37;8.68;;;7.10;;
36391;SDS011;22639;42.690;23.356;2023-08-17T01:06:05;9.40;;;6.20;;
36391;SDS011;22639;42.690;23.356;2023-08-17T01:08:31;6.97;;;6.28;;
36391;SDS011;22639;42.690;23.356;2023-08-17T01:13:25;9.00;;;6.28;;
36391;SDS011;22639;42.690;23.356;2023-08-17T01:15:54;14.05;;;6.93;;
36391;SDS011;22639;42.690;23.356;2023-08-17T01:20:49;6.63;;;5.63;;
36391;SDS011;22639;42.690;23.356;2023-08-17T01:23:15;7.63;;;6.75;;
36391;SDS011;22639;42.690;23.356;2023-08-17T01:25:40;7.88;;;6.10;;
36391;SDS011;22639;42.690;23.356;2023-08-17T01:28:05;10.18;;;7.05;;
36391;SDS011;22639;42.690;23.356;2023-08-17T01:30:37;6.60;;;5.97;;
36391;SDS011;22639;42.690;23.356;2023-08-17T01:33:06;7.82;;;6.25;;
36391;SDS011;22639;42.690;23.356;2023-08-17T01:38:04;6.47;;;5.88;;
36391;SDS011;22639;42.690;23.356;2023-08-17T01:40:33;7.05;;;6.43;;
36391;SDS011;22639;42.690;23.356;2023-08-17T01:42:58;8.38;;;5.95;;
36391;SDS011;22639;42.690;23.356;2023-08-17T01:45:24;10.85;;;6.28;;
36391;SDS011;22639;42.690;23.356;2023-08-17T01:47:49;8.75;;;6.05;;
36391;SDS011;22639;42.690;23.356;2023-08-17T01:50:15;6.22;;;5.63;;
36391;SDS011;22639;42.690;23.356;2023-08-17T01:52:40;6.40;;;5.80;;
36391;SDS011;22639;42.690;23.356;2023-08-17T01:55:05;7.32;;;6.35;;
36391;SDS011;22639;42.690;23.356;2023-08-17T01:57:31;9.52;;;6.47;;
36391;SDS011;22639;42.690;23.356;2023-08-17T01:59:56;7.60;;;6.80;;
36391;SDS011;22639;42.690;23.356;2023-08-17T02:02:21;7.28;;;6.13;;
36391;SDS011;22639;42.690;23.356;2023-08-17T02:04:47;7.93;;;4.97;;
36391;SDS011;22639;42.690;23.356;2023-08-17T02:07:12;6.35;;;5.75;;
36391;SDS011;22639;42.690;23.356;2023-08-17T02:09:38;10.15;;;5.97;;
36391;SDS011;22639;42.690;23.356;2023-08-17T02:12:03;6.85;;;6.07;;
36391;SDS011;22639;42.690;23.356;2023-08-17T02:14:29;7.40;;;4.97;;
36391;SDS011;22639;42.690;23.356;2023-08-17T02:16:54;7.75;;;5.93;;
36391;SDS011;22639;42.690;23.356;2023-08-17T02:19:19;6.45;;;5.82;;
36391;SDS011;22639;42.690;23.356;2023-08-17T02:21:45;6.28;;;5.20;;
36391;SDS011;22639;42.690;23.356;2023-08-17T02:24:10;8.65;;;5.28;;
36391;SDS011;22639;42.690;23.356;2023-08-17T02:26:36;13.18;;;10.40;;
36391;SDS011;22639;42.690;23.356;2023-08-17T02:29:03;7.03;;;6.43;;
36391;SDS011;22639;42.690;23.356;2023-08-17T02:31:28;6.05;;;5.50;;
36391;SDS011;22639;42.690;23.356;2023-08-17T02:33:54;9.30;;;6.18;;
36391;SDS011;22639;42.690;23.356;2023-08-17T02:36:23;8.43;;;5.72;;
36391;SDS011;22639;42.690;23.356;2023-08-17T02:38:48;6.82;;;4.85;;
36391;SDS011;22639;42.690;23.356;2023-08-17T02:41:16;7.80;;;5.85;;
36391;SDS011;22639;42.690;23.356;2023-08-17T02:43:44;6.63;;;5.50;;
36391;SDS011;22639;42.690;23.356;2023-08-17T02:46:10;6.50;;;5.90;;
36391;SDS011;22639;42.690;23.356;2023-08-17T02:48:35;7.53;;;5.63;;
36391;SDS011;22639;42.690;23.356;2023-08-17T02:51:01;7.85;;;5.72;;
36391;SDS011;22639;42.690;23.356;2023-08-17T02:53:26;7.30;;;5.28;;
36391;SDS011;22639;42.690;23.356;2023-08-17T02:55:54;5.47;;;4.97;;
36391;SDS011;22639;42.690;23.356;2023-08-17T02:58:19;12.25;;;5.28;;
36391;SDS011;22639;42.690;23.356;2023-08-17T03:00:45;7.63;;;5.90;;
36391;SDS011;22639;42.690;23.356;2023-08-17T03:03:10;6.82;;;5.57;;
36391;SDS011;22639;42.690;23.356;2023-08-17T03:05:36;5.40;;;4.80;;
36391;SDS011;22639;42.690;23.356;2023-08-17T03:08:01;7.60;;;5.43;;
36391;SDS011;22639;42.690;23.356;2023-08-17T03:10:26;7.55;;;5.35;;
36391;SDS011;22639;42.690;23.356;2023-08-17T03:12:51;8.25;;;6.07;;
36391;SDS011;22639;42.690;23.356;2023-08-17T03:15:17;6.88;;;5.18;;
36391;SDS011;22639;42.690;23.356;2023-08-17T03:17:42;8.60;;;5.55;;
36391;SDS011;22639;42.690;23.356;2023-08-17T03:20:08;5.68;;;5.10;;
36391;SDS011;22639;42.690;23.356;2023-08-17T03:22:33;5.90;;;5.40;;
36391;SDS011;22639;42.690;23.356;2023-08-17T03:24:59;6.47;;;5.60;;
36391;SDS011;22639;42.690;23.356;2023-08-17T03:27:24;6.60;;;5.15;;
36391;SDS011;22639;42.690;23.356;2023-08-17T03:29:50;7.25;;;5.53;;
36391;SDS011;22639;42.690;23.356;2023-08-17T03:32:15;6.25;;;5.45;;
36391;SDS011;22639;42.690;23.356;2023-08-17T03:34:40;12.68;;;6.15;;
36391;SDS011;22639;42.690;23.356;2023-08-17T03:37:06;9.93;;;6.20;;
36391;SDS011;22639;42.690;23.356;2023-08-17T03:39:31;8.48;;;5.47;;
36391;SDS011;22639;42.690;23.356;2023-08-17T03:41:56;5.97;;;4.47;;
36391;SDS011;22639;42.690;23.356;2023-08-17T03:44:22;9.75;;;5.05;;
36391;SDS011;22639;42.690;23.356;2023-08-17T03:46:47;8.85;;;5.13;;
36391;SDS011;22639;42.690;23.356;2023-08-17T03:49:12;5.10;;;4.55;;
36391;SDS011;22639;42.690;23.356;2023-08-17T03:51:38;8.10;;;6.65;;
36391;SDS011;22639;42.690;23.356;2023-08-17T03:54:03;10.70;;;9.60;;
36391;SDS011;22639;42.690;23.356;2023-08-17T03:56:28;8.35;;;7.10;;
36391;SDS011;22639;42.690;23.356;2023-08-17T03:58:59;8.82;;;5.93;;
36391;SDS011;22639;42.690;23.356;2023-08-17T04:01:25;7.07;;;5.70;;
36391;SDS011;22639;42.690;23.356;2023-08-17T04:03:50;9.38;;;5.38;;
36391;SDS011;22639;42.690;23.356;2023-08-17T04:06:16;6.20;;;4.35;;
36391;SDS011;22639;42.690;23.356;2023-08-17T04:08:41;7.78;;;4.90;;
36391;SDS011;22639;42.690;23.356;2023-08-17T04:11:06;8.32;;;4.60;;
36391;SDS011;22639;42.690;23.356;2023-08-17T04:13:31;5.13;;;4.63;;
36391;SDS011;22639;42.690;23.356;2023-08-17T04:15:57;6.65;;;5.10;;
36391;SDS011;22639;42.690;23.356;2023-08-17T04:18:22;6.28;;;4.15;;
36391;SDS011;22639;42.690;23.356;2023-08-17T04:20:47;9.90;;;5.15;;
36391;SDS011;22639;42.690;23.356;2023-08-17T04:23:13;5.43;;;4.45;;
36391;SDS011;22639;42.690;23.356;2023-08-17T04:25:38;6.13;;;4.30;;
36391;SDS011;22639;42.690;23.356;2023-08-17T04:28:03;4.82;;;4.05;;
36391;SDS011;22639;42.690;23.356;2023-08-17T04:30:29;6.93;;;4.68;;
36391;SDS011;22639;42.690;23.356;2023-08-17T04:32:54;6.40;;;5.68;;
36391;SDS011;22639;42.690;23.356;2023-08-17T04:35:19;9.60;;;6.25;;
36391;SDS011;22639;42.690;23.356;2023-08-17T04:37:45;6.57;;;5.95;;
36391;SDS011;22639;42.690;23.356;2023-08-17T04:40:10;11.05;;;6.13;;
36391;SDS011;22639;42.690;23.356;2023-08-17T04:42:36;8.45;;;6.53;;
36391;SDS011;22639;42.690;23.356;2023-08-17T04:45:01;8.20;;;5.90;;
36391;SDS011;22639;42.690;23.356;2023-08-17T04:47:27;8.65;;;6.28;;
36391;SDS011;22639;42.690;23.356;2023-08-17T04:49:52;7.57;;;5.75;;
36391;SDS011;22639;42.690;23.356;2023-08-17T04:52:18;6.53;;;5.82;;
36391;SDS011;22639;42.690;23.356;2023-08-17T04:54:43;8.75;;;5.97;;
36391;SDS011;22639;42.690;23.356;2023-08-17T04:57:08;10.25;;;6.68;;
36391;SDS011;22639;42.690;23.356;2023-08-17T04:59:33;6.43;;;5.40;;
36391;SDS011;22639;42.690;23.356;2023-08-17T05:01:59;10.02;;;5.65;;
36391;SDS011;22639;42.690;23.356;2023-08-17T05:04:24;8.32;;;5.50;;
36391;SDS011;22639;42.690;23.356;2023-08-17T05:06:49;6.40;;;5.70;;
36391;SDS011;22639;42.690;23.356;2023-08-17T05:09:15;6.20;;;5.55;;
36391;SDS011;22639;42.690;23.356;2023-08-17T05:11:41;5.25;;;4.60;;
36391;SDS011;22639;42.690;23.356;2023-08-17T05:14:06;7.55;;;5.43;;
36391;SDS011;22639;42.690;23.356;2023-08-17T05:16:31;7.05;;;5.05;;
36391;SDS011;22639;42.690;23.356;2023-08-17T05:18:57;8.13;;;5.70;;
36391;SDS011;22639;42.690;23.356;2023-08-17T05:21:24;5.95;;;5.35;;
36391;SDS011;22639;42.690;23.356;2023-08-17T05:23:49;5.63;;;5.03;;
36391;SDS011;22639;42.690;23.356;2023-08-17T05:26:14;8.77;;;5.53;;
36391;SDS011;22639;42.690;23.356;2023-08-17T05:28:40;6.07;;;4.85;;
36391;SDS011;22639;42.690;23.356;2023-08-17T05:31:06;6.65;;;4.82;;
36391;SDS011;22639;42.690;23.356;2023-08-17T05:33:32;7.95;;;5.25;;
36391;SDS011;22639;42.690;23.356;2023-08-17T05:35:57;5.95;;;4.93;;
36391;SDS011;22639;42.690;23.356;2023-08-17T05:38:22;5.43;;;4.47;;
36391;SDS011;22639;42.690;23.356;2023-08-17T05:40:47;5.15;;;4.38;;
36391;SDS011;22639;42.690;23.356;2023-08-17T05:43:13;4.75;;;4.10;;
36391;SDS011;22639;42.690;23.356;2023-08-17T05:45:38;4.85;;;4.10;;
36391;SDS011;22639;42.690;23.356;2023-08-17T05:48:03;6.05;;;4.63;;
36391;SDS011;22639;42.690;23.356;2023-08-17T05:50:29;7.10;;;4.18;;
36391;SDS011;22639;42.690;23.356;2023-08-17T05:52:55;5.00;;;4.13;;
36391;SDS011;22639;42.690;23.356;2023-08-17T05:55:20;7.45;;;3.90;;
36391;SDS011;22639;42.690;23.356;2023-08-17T05:57:46;5.70;;;4.30;;
36391;SDS011;22639;42.690;23.356;2023-08-17T06:00:11;5.20;;;4.50;;
36391;SDS011;22639;42.690;23.356;2023-08-17T06:02:37;6.15;;;5.63;;
36391;SDS011;22639;42.690;23.356;2023-08-17T06:05:02;6.43;;;5.65;;
36391;SDS011;22639;42.690;23.356;2023-08-17T06:07:28;7.15;;;6.43;;
36391;SDS011;22639;42.690;23.356;2023-08-17T06:09:53;7.00;;;6.15;;
36391;SDS011;22639;42.690;23.356;2023-08-17T06:12:18;7.95;;;6.25;;
36391;SDS011;22639;42.690;23.356;2023-08-17T06:14:44;8.75;;;6.90;;
36391;SDS011;22639;42.690;23.356;2023-08-17T06:17:09;7.55;;;6.80;;
36391;SDS011;22639;42.690;23.356;2023-08-17T06:19:34;8.27;;;7.47;;
36391;SDS011;22639;42.690;23.356;2023-08-17T06:21:59;10.15;;;7.25;;
36391;SDS011;22639;42.690;23.356;2023-08-17T06:24:25;7.45;;;6.55;;
36391;SDS011;22639;42.690;23.356;2023-08-17T06:26:50;7.10;;;6.15;;
36391;SDS011;22639;42.690;23.356;2023-08-17T06:29:15;5.63;;;4.55;;
36391;SDS011;22639;42.690;23.356;2023-08-17T06:31:41;5.20;;;4.70;;
36391;SDS011;22639;42.690;23.356;2023-08-17T06:34:07;7.53;;;5.43;;
36391;SDS011;22639;42.690;23.356;2023-08-17T06:36:32;6.05;;;5.45;;
36391;SDS011;22639;42.690;23.356;2023-08-17T06:38:58;6.22;;;5.25;;
36391;SDS011;22639;42.690;23.356;2023-08-17T06:41:23;6.18;;;5.22;;
36391;SDS011;22639;42.690;23.356;2023-08-17T06:43:49;4.80;;;4.20;;
36391;SDS011;22639;42.690;23.356;2023-08-17T06:46:15;7.22;;;4.20;;
36391;SDS011;22639;42.690;23.356;2023-08-17T06:48:40;7.65;;;4.80;;
36391;SDS011;22639;42.690;23.356;2023-08-17T06:51:05;5.90;;;5.03;;
36391;SDS011;22639;42.690;23.356;2023-08-17T06:53:31;5.72;;;4.93;;
36391;SDS011;22639;42.690;23.356;2023-08-17T06:55:56;7.18;;;4.72;;
36391;SDS011;22639;42.690;23.356;2023-08-17T06:58:22;5.65;;;4.88;;
36391;SDS011;22639;42.690;23.356;2023-08-17T07:00:47;6.60;;;6.00;;
36391;SDS011;22639;42.690;23.356;2023-08-17T07:03:13;9.70;;;5.45;;
36391;SDS011;22639;42.690;23.356;2023-08-17T07:05:38;7.05;;;5.75;;
36391;SDS011;22639;42.690;23.356;2023-08-17T07:08:04;6.05;;;5.43;;
36391;SDS011;22639;42.690;23.356;2023-08-17T07:10:29;6.43;;;5.35;;
36391;SDS011;22639;42.690;23.356;2023-08-17T07:12:54;6.05;;;5.45;;
36391;SDS011;22639;42.690;23.356;2023-08-17T07:15:20;7.60;;;4.60;;
36391;SDS011;22639;42.690;23.356;2023-08-17T07:17:45;5.97;;;3.60;;
36391;SDS011;22639;42.690;23.356;2023-08-17T07:20:10;7.65;;;5.07;;
36391;SDS011;22639;42.690;23.356;2023-08-17T07:22:36;5.40;;;4.43;;
36391;SDS011;22639;42.690;23.356;2023-08-17T07:25:01;4.65;;;4.28;;
36391;SDS011;22639;42.690;23.356;2023-08-17T07:27:27;5.13;;;4.60;;
36391;SDS011;22639;42.690;23.356;2023-08-17T07:29:52;5.47;;;4.10;;
36391;SDS011;22639;42.690;23.356;2023-08-17T07:32:18;5.20;;;4.77;;
36391;SDS011;22639;42.690;23.356;2023-08-17T07:34:43;4.75;;;4.22;;
36391;SDS011;22639;42.690;23.356;2023-08-17T07:37:08;4.75;;;3.92;;
36391;SDS011;22639;42.690;23.356;2023-08-17T07:39:33;5.50;;;3.78;;
36391;SDS011;22639;42.690;23.356;2023-08-17T07:41:59;4.67;;;4.17;;
36391;SDS011;22639;42.690;23.356;2023-08-17T07:44:24;3.53;;;3.33;;
36391;SDS011;22639;42.690;23.356;2023-08-17T07:46:49;4.38;;;4.07;;
36391;SDS011;22639;42.690;23.356;2023-08-17T07:49:14;7.50;;;4.10;;
36391;SDS011;22639;42.690;23.356;2023-08-17T07:51:39;4.32;;;4.03;;
36391;SDS011;22639;42.690;23.356;2023-08-17T07:54:05;4.80;;;4.40;;
36391;SDS011;22639;42.690;23.356;2023-08-17T07:56:30;5.00;;;4.10;;
36391;SDS011;22639;42.690;23.356;2023-08-17T07:58:55;4.57;;;4.20;;
36391;SDS011;22639;42.690;23.356;2023-08-17T08:01:21;6.47;;;4.85;;
36391;SDS011;22639;42.690;23.356;2023-08-17T08:03:46;7.97;;;4.43;;
36391;SDS011;22639;42.690;23.356;2023-08-17T08:06:12;4.65;;;4.25;;
36391;SDS011;22639;42.690;23.356;2023-08-17T08:08:38;4.07;;;3.78;;
36391;SDS011;22639;42.690;23.356;2023-08-17T08:11:03;4.70;;;4.18;;
36391;SDS011;22639;42.690;23.356;2023-08-17T08:13:29;4.40;;;4.00;;
36391;SDS011;22639;42.690;23.356;2023-08-17T08:15:54;4.68;;;3.80;;
36391;SDS011;22639;42.690;23.356;2023-08-17T08:18:20;4.33;;;3.53;;
36391;SDS011;22639;42.690;23.356;2023-08-17T08:20:45;6.15;;;4.30;;
36391;SDS011;22639;42.690;23.356;2023-08-17T08:23:10;5.13;;;3.45;;
36391;SDS011;22639;42.690;23.356;2023-08-17T08:25:36;3.58;;;3.28;;
36391;SDS011;22639;42.690;23.356;2023-08-17T08:28:01;4.82;;;4.22;;
36391;SDS011;22639;42.690;23.356;2023-08-17T08:30:26;4.25;;;3.85;;
36391;SDS011;22639;42.690;23.356;2023-08-17T08:32:52;4.00;;;3.67;;
36391;SDS011;22639;42.690;23.356;2023-08-17T08:35:17;4.30;;;3.67;;
36391;SDS011;22639;42.690;23.356;2023-08-17T08:37:42;4.95;;;4.10;;
36391;SDS011;22639;42.690;23.356;2023-08-17T08:40:10;6.07;;;3.90;;
36391;SDS011;22639;42.690;23.356;2023-08-17T08:42:36;5.93;;;4.03;;
36391;SDS011;22639;42.690;23.356;2023-08-17T08:45:01;8.07;;;4.60;;
36391;SDS011;22639;42.690;23.356;2023-08-17T08:47:27;4.45;;;4.05;;
36391;SDS011;22639;42.690;23.356;2023-08-17T08:49:57;4.22;;;3.92;;
36391;SDS011;22639;42.690;23.356;2023-08-17T08:52:23;4.07;;;3.75;;
36391;SDS011;22639;42.690;23.356;2023-08-17T08:54:53;6.15;;;4.10;;
36391;SDS011;22639;42.690;23.356;2023-08-17T08:57:19;4.43;;;4.07;;
36391;SDS011;22639;42.690;23.356;2023-08-17T08:59:45;5.20;;;3.33;;
36391;SDS011;22639;42.690;23.356;2023-08-17T09:02:15;8.32;;;3.38;;
36391;SDS011;22639;42.690;23.356;2023-08-17T09:04:43;4.35;;;3.47;;
36391;SDS011;22639;42.690;23.356;2023-08-17T09:07:10;6.57;;;3.60;;
36391;SDS011;22639;42.690;23.356;2023-08-17T09:09:35;4.10;;;3.40;;
36391;SDS011;22639;42.690;23.356;2023-08-17T09:12:01;4.68;;;3.75;;
36391;SDS011;22639;42.690;23.356;2023-08-17T09:14:29;3.65;;;2.92;;
36391;SDS011;22639;42.690;23.356;2023-08-17T09:16:54;3.83;;;3.30;;
36391;SDS011;22639;42.690;23.356;2023-08-17T09:19:23;3.40;;;3.10;;
36391;SDS011;22639;42.690;23.356;2023-08-17T09:21:48;3.53;;;3.23;;
36391;SDS011;22639;42.690;23.356;2023-08-17T09:24:14;4.07;;;3.35;;
36391;SDS011;22639;42.690;23.356;2023-08-17T09:26:39;5.47;;;3.53;;
36391;SDS011;22639;42.690;23.356;2023-08-17T09:29:17;3.65;;;3.30;;
36391;SDS011;22639;42.690;23.356;2023-08-17T09:31:43;4.50;;;3.38;;
36391;SDS011;22639;42.690;23.356;2023-08-17T09:34:08;3.40;;;3.10;;
36391;SDS011;22639;42.690;23.356;2023-08-17T09:36:34;5.45;;;3.42;;
36391;SDS011;22639;42.690;23.356;2023-08-17T09:39:00;5.15;;;3.80;;
36391;SDS011;22639;42.690;23.356;2023-08-17T09:41:26;5.32;;;3.38;;
36391;SDS011;22639;42.690;23.356;2023-08-17T09:43:51;5.70;;;3.60;;
36391;SDS011;22639;42.690;23.356;2023-08-17T09:46:19;3.35;;;3.00;;
36391;SDS011;22639;42.690;23.356;2023-08-17T09:48:44;7.72;;;3.63;;
36391;SDS011;22639;42.690;23.356;2023-08-17T09:51:10;3.30;;;3.10;;
36391;SDS011;22639;42.690;23.356;2023-08-17T09:53:36;4.85;;;2.80;;
36391;SDS011;22639;42.690;23.356;2023-08-17T09:56:07;2.80;;;2.60;;
36391;SDS011;22639;42.690;23.356;2023-08-17T09:58:38;2.55;;;2.17;;
36391;SDS011;22639;42.690;23.356;2023-08-17T10:01:04;4.13;;;2.30;;
36391;SDS011;22639;42.690;23.356;2023-08-17T10:03:29;2.28;;;2.08;;
36391;SDS011;22639;42.690;23.356;2023-08-17T10:05:59;2.95;;;2.75;;
36391;SDS011;22639;42.690;23.356;2023-08-17T10:08:26;3.35;;;2.30;;
36391;SDS011;22639;42.690;23.356;2023-08-17T10:10:53;3.70;;;2.92;;
36391;SDS011;22639;42.690;23.356;2023-08-17T10:14:02;2.97;;;2.78;;
36391;SDS011;22639;42.690;23.356;2023-08-17T10:16:11;2.70;;;2.50;;
36391;SDS011;22639;42.690;23.356;2023-08-17T10:18:45;2.78;;;2.58;;
36391;SDS011;22639;42.690;23.356;2023-08-17T10:21:13;2.63;;;2.42;;
36391;SDS011;22639;42.690;23.356;2023-08-17T10:23:41;5.32;;;2.85;;
36391;SDS011;22639;42.690;23.356;2023-08-17T10:26:08;3.92;;;2.67;;
36391;SDS011;22639;42.690;23.356;2023-08-17T10:28:34;3.88;;;2.63;;
36391;SDS011;22639;42.690;23.356;2023-08-17T10:30:59;2.90;;;2.60;;
36391;SDS011;22639;42.690;23.356;2023-08-17T10:33:24;2.97;;;2.63;;
36391;SDS011;22639;42.690;23.356;2023-08-17T10:35:51;3.13;;;2.83;;
36391;SDS011;22639;42.690;23.356;2023-08-17T10:38:16;2.55;;;2.35;;
36391;SDS011;22639;42.690;23.356;2023-08-17T10:40:42;4.07;;;2.72;;
36391;SDS011;22639;42.690;23.356;2023-08-17T10:43:08;2.80;;;2.60;;
36391;SDS011;22639;42.690;23.356;2023-08-17T10:45:36;3.38;;;2.47;;
36391;SDS011;22639;42.690;23.356;2023-08-17T10:50:31;5.75;;;2.95;;
36391;SDS011;22639;42.690;23.356;2023-08-17T10:52:58;3.30;;;2.85;;
36391;SDS011;22639;42.690;23.356;2023-08-17T10:55:38;3.50;;;2.90;;
36391;SDS011;22639;42.690;23.356;2023-08-17T10:58:05;4.80;;;2.95;;
36391;SDS011;22639;42.690;23.356;2023-08-17T11:00:39;2.88;;;2.67;;
36391;SDS011;22639;42.690;23.356;2023-08-17T11:06:34;3.83;;;3.15;;
36391;SDS011;22639;42.690;23.356;2023-08-17T11:08:31;3.13;;;2.72;;
36391;SDS011;22639;42.690;23.356;2023-08-17T11:11:09;3.42;;;3.13;;
36391;SDS011;22639;42.690;23.356;2023-08-17T11:13:36;3.58;;;3.25;;
36391;SDS011;22639;42.690;23.356;2023-08-17T11:16:02;3.40;;;3.10;;
36391;SDS011;22639;42.690;23.356;2023-08-17T11:18:28;5.05;;;2.85;;
36391;SDS011;22639;42.690;23.356;2023-08-17T11:20:53;3.70;;;3.40;;
36391;SDS011;22639;42.690;23.356;2023-08-17T11:23:19;4.05;;;3.67;;
36391;SDS011;22639;42.690;23.356;2023-08-17T11:25:44;3.67;;;2.80;;
36391;SDS011;22639;42.690;23.356;2023-08-17T11:28:10;5.72;;;3.67;;
36391;SDS011;22639;42.690;23.356;2023-08-17T11:30:35;3.15;;;2.95;;
36391;SDS011;22639;42.690;23.356;2023-08-17T11:33:03;5.55;;;3.40;;
36391;SDS011;22639;42.690;23.356;2023-08-17T11:35:29;3.90;;;3.60;;
36391;SDS011;22639;42.690;23.356;2023-08-17T11:37:54;4.20;;;3.25;;
36391;SDS011;22639;42.690;23.356;2023-08-17T11:40:20;3.42;;;2.85;;
36391;SDS011;22639;42.690;23.356;2023-08-17T11:42:45;3.70;;;3.33;;
36391;SDS011;22639;42.690;23.356;2023-08-17T11:45:11;4.55;;;4.15;;
36391;SDS011;22639;42.690;23.356;2023-08-17T11:47:40;3.72;;;3.38;;
36391;SDS011;22639;42.690;23.356;2023-08-17T11:50:08;3.97;;;3.63;;
36391;SDS011;22639;42.690;23.356;2023-08-17T11:52:34;4.20;;;3.75;;
36391;SDS011;22639;42.690;23.356;2023-08-17T11:55:01;4.47;;;4.07;;
36391;SDS011;22639;42.690;23.356;2023-08-17T11:57:27;4.50;;;3.72;;
36391;SDS011;22639;42.690;23.356;2023-08-17T11:59:55;4.38;;;3.90;;
36391;SDS011;22639;42.690;23.356;2023-08-17T12:02:22;4.30;;;3.90;;
36391;SDS011;22639;42.690;23.356;2023-08-17T12:04:48;5.50;;;3.92;;
36391;SDS011;22639;42.690;23.356;2023-08-17T12:07:13;6.15;;;3.78;;
36391;SDS011;22639;42.690;23.356;2023-08-17T12:09:40;4.20;;;3.90;;
36391;SDS011;22639;42.690;23.356;2023-08-17T12:12:05;3.78;;;3.42;;
36391;SDS011;22639;42.690;23.356;2023-08-17T12:14:31;4.30;;;4.00;;
36391;SDS011;22639;42.690;23.356;2023-08-17T12:16:56;5.13;;;4.30;;
36391;SDS011;22639;42.690;23.356;2023-08-17T12:19:22;5.55;;;4.28;;
36391;SDS011;22639;42.690;23.356;2023-08-17T12:21:49;4.78;;;4.15;;
36391;SDS011;22639;42.690;23.356;2023-08-17T12:24:14;6.93;;;5.30;;
36391;SDS011;22639;42.690;23.356;2023-08-17T12:26:41;5.57;;;5.18;;
36391;SDS011;22639;42.690;23.356;2023-08-17T12:29:08;6.00;;;5.35;;
36391;SDS011;22639;42.690;23.356;2023-08-17T12:31:33;6.03;;;4.90;;
36391;SDS011;22639;42.690;23.356;2023-08-17T12:33:59;4.38;;;3.90;;
36391;SDS011;22639;42.690;23.356;2023-08-17T12:36:25;6.47;;;4.43;;
36391;SDS011;22639;42.690;23.356;2023-08-17T12:38:50;5.72;;;5.22;;
36391;SDS011;22639;42.690;23.356;2023-08-17T12:41:15;5.50;;;5.00;;
36391;SDS011;22639;42.690;23.356;2023-08-17T12:43:41;5.68;;;4.93;;
36391;SDS011;22639;42.690;23.356;2023-08-17T12:46:06;6.43;;;5.72;;
36391;SDS011;22639;42.690;23.356;2023-08-17T12:48:31;6.25;;;5.75;;
36391;SDS011;22639;42.690;23.356;2023-08-17T12:50:58;5.05;;;4.65;;
36391;SDS011;22639;42.690;23.356;2023-08-17T12:53:23;6.60;;;5.47;;
36391;SDS011;22639;42.690;23.356;2023-08-17T12:55:48;8.15;;;5.32;;
36391;SDS011;22639;42.690;23.356;2023-08-17T12:58:14;6.20;;;5.57;;
36391;SDS011;22639;42.690;23.356;2023-08-17T13:00:39;5.63;;;5.22;;
36391;SDS011;22639;42.690;23.356;2023-08-17T13:03:04;6.10;;;5.38;;
36391;SDS011;22639;42.690;23.356;2023-08-17T13:05:29;5.20;;;4.75;;
36391;SDS011;22639;42.690;23.356;2023-08-17T13:10:40;5.65;;;4.80;;
36391;SDS011;22639;42.690;23.356;2023-08-17T13:13:06;8.90;;;4.63;;
36391;SDS011;22639;42.690;23.356;2023-08-17T13:15:32;5.22;;;4.82;;
36391;SDS011;22639;42.690;23.356;2023-08-17T13:17:57;5.70;;;5.07;;
36391;SDS011;22639;42.690;23.356;2023-08-17T13:20:22;8.38;;;5.28;;
36391;SDS011;22639;42.690;23.356;2023-08-17T13:22:48;5.75;;;5.20;;
36391;SDS011;22639;42.690;23.356;2023-08-17T13:25:13;7.05;;;5.32;;
36391;SDS011;22639;42.690;23.356;2023-08-17T13:27:40;6.47;;;5.22;;
36391;SDS011;22639;42.690;23.356;2023-08-17T13:30:05;5.35;;;4.85;;
36391;SDS011;22639;42.690;23.356;2023-08-17T13:32:31;5.65;;;5.15;;
36391;SDS011;22639;42.690;23.356;2023-08-17T13:34:56;5.30;;;4.88;;
36391;SDS011;22639;42.690;23.356;2023-08-17T13:37:21;5.25;;;4.75;;
36391;SDS011;22639;42.690;23.356;2023-08-17T13:39:47;6.47;;;5.05;;
36391;SDS011;22639;42.690;23.356;2023-08-17T13:42:12;5.82;;;5.32;;
36391;SDS011;22639;42.690;23.356;2023-08-17T13:44:38;5.65;;;5.15;;
36391;SDS011;22639;42.690;23.356;2023-08-17T13:47:03;7.80;;;5.55;;
36391;SDS011;22639;42.690;23.356;2023-08-17T13:49:28;7.38;;;4.40;;
36391;SDS011;22639;42.690;23.356;2023-08-17T13:51:53;7.00;;;4.85;;
36391;SDS011;22639;42.690;23.356;2023-08-17T13:54:19;4.90;;;4.50;;
36391;SDS011;22639;42.690;23.356;2023-08-17T13:56:44;6.13;;;4.65;;
36391;SDS011;22639;42.690;23.356;2023-08-17T13:59:10;5.95;;;4.88;;
36391;SDS011;22639;42.690;23.356;2023-08-17T14:01:35;5.65;;;4.75;;
36391;SDS011;22639;42.690;23.356;2023-08-17T14:04:00;9.25;;;4.45;;
36391;SDS011;22639;42.690;23.356;2023-08-17T14:06:25;5.32;;;4.80;;
36391;SDS011;22639;42.690;23.356;2023-08-17T14:08:51;8.13;;;5.45;;
36391;SDS011;22639;42.690;23.356;2023-08-17T14:11:16;5.05;;;4.55;;
36391;SDS011;22639;42.690;23.356;2023-08-17T14:13:41;5.05;;;4.60;;
36391;SDS011;22639;42.690;23.356;2023-08-17T14:16:06;6.88;;;5.00;;
36391;SDS011;22639;42.690;23.356;2023-08-17T14:18:32;4.85;;;4.45;;
36391;SDS011;22639;42.690;23.356;2023-08-17T14:20:57;4.40;;;4.00;;
36391;SDS011;22639;42.690;23.356;2023-08-17T14:23:22;5.47;;;4.68;;
36391;SDS011;22639;42.690;23.356;2023-08-17T14:25:47;6.10;;;4.38;;
36391;SDS011;22639;42.690;23.356;2023-08-17T14:28:13;4.55;;;4.15;;
36391;SDS011;22639;42.690;23.356;2023-08-17T14:30:38;6.32;;;4.60;;
36391;SDS011;22639;42.690;23.356;2023-08-17T14:33:03;4.90;;;4.43;;
36391;SDS011;22639;42.690;23.356;2023-08-17T14:35:29;4.93;;;4.43;;
36391;SDS011;22639;42.690;23.356;2023-08-17T14:37:54;7.82;;;4.82;;
36391;SDS011;22639;42.690;23.356;2023-08-17T14:40:22;5.18;;;4.50;;